createdAt,value
2023-03-16T02:11:02.092Z,2.90
2023-03-16T02:12:01.931Z,3.10
2023-03-16T02:13:01.007Z,3.20
2023-03-16T02:14:01.346Z,3.30
2023-03-16T02:15:00.809Z,3.30
2023-03-16T02:16:01.439Z,3.60
2023-03-16T02:17:01.276Z,3.00
2023-03-16T02:18:01.320Z,3.00
2023-03-16T02:19:05.147Z,2.90
2023-03-16T02:20:01.457Z,3.10
2023-03-16T02:21:01.525Z,2.90
2023-03-16T02:22:01.176Z,2.90
2023-03-16T02:23:01.382Z,3.20
2023-03-16T02:24:00.996Z,3.30
2023-03-16T02:25:01.368Z,3.90
2023-03-16T02:26:01.965Z,3.50
2023-03-16T02:27:01.792Z,3.20
2023-03-16T02:28:01.220Z,3.30
2023-03-16T02:29:00.755Z,4.10
2023-03-16T02:30:00.796Z,4.00
2023-03-16T02:31:01.383Z,4.60
2023-03-16T02:32:02.643Z,4.50
2023-03-16T02:33:01.915Z,4.30
2023-03-16T02:34:01.596Z,4.30
2023-03-16T02:35:00.804Z,4.50
2023-03-16T02:36:01.528Z,4.70
2023-03-16T02:37:00.798Z,4.40
2023-03-16T02:38:00.660Z,4.40
2023-03-16T02:39:00.499Z,4.80
2023-03-16T02:40:00.768Z,4.20
2023-03-16T02:41:00.732Z,4.60
2023-03-16T02:42:00.986Z,4.00
2023-03-16T02:43:00.900Z,4.70
2023-03-16T02:44:01.002Z,3.90
2023-03-16T02:45:00.898Z,4.20
2023-03-16T02:46:01.197Z,4.00
2023-03-16T02:47:02.122Z,4.10
2023-03-16T02:55:14.961Z,4.20
2023-03-16T02:56:14.900Z,4.10
2023-03-16T02:57:36.996Z,4.20
2023-03-16T02:58:15.034Z,4.40
2023-03-16T02:59:15.574Z,4.00
2023-03-16T03:00:15.697Z,4.30
2023-03-16T03:01:26.506Z,4.40
2023-03-16T03:02:20.062Z,4.10
2023-03-16T03:03:16.303Z,4.30
2023-03-16T03:04:17.130Z,4.10
2023-03-16T03:05:16.880Z,3.50
2023-03-16T03:06:15.283Z,4.10
2023-03-16T03:07:15.279Z,4.30
2023-03-16T04:51:29.460Z,3.30
2023-03-16T05:06:54.587Z,4.70
2023-03-16T05:11:43.423Z,4.40
2023-03-16T05:14:42.549Z,4.70
2023-03-16T05:15:42.353Z,4.80
2023-03-16T05:16:42.393Z,4.40
2023-03-16T05:17:42.101Z,4.20
2023-03-16T05:18:42.102Z,4.20
2023-03-16T05:19:42.069Z,3.90
2023-03-16T05:20:42.076Z,3.60
2023-03-16T05:21:42.060Z,4.40
2023-03-16T05:22:42.310Z,4.50
2023-03-16T05:23:42.134Z,3.80
2023-03-16T05:24:42.632Z,4.10
2023-03-16T05:25:42.254Z,4.60
2023-03-16T05:26:42.030Z,4.60
2023-03-16T05:27:42.899Z,4.40
2023-03-16T05:28:45.144Z,4.10
2023-03-16T05:29:41.991Z,4.60
2023-03-16T05:30:42.088Z,4.40
2023-03-16T05:31:41.963Z,5.00
2023-03-16T05:32:41.996Z,5.10
2023-03-16T05:33:41.973Z,4.80
2023-03-16T05:34:41.966Z,5.00
2023-03-16T05:35:42.020Z,5.40
2023-03-16T05:36:41.915Z,5.40
2023-03-16T05:37:41.955Z,5.70
2023-03-16T05:38:41.913Z,5.70
2023-03-16T05:39:41.902Z,5.70
2023-03-16T05:40:41.914Z,5.50
2023-03-16T05:41:41.899Z,6.00
2023-03-16T05:42:41.850Z,9.70
2023-03-16T05:43:41.847Z,12.30
2023-03-16T05:44:41.825Z,11.80
2023-03-16T05:45:41.815Z,10.40
2023-03-16T05:46:41.866Z,10.70
2023-03-16T05:47:42.481Z,9.00
2023-03-16T05:48:41.847Z,9.30
2023-03-16T05:49:41.868Z,9.80
2023-03-16T05:50:41.791Z,9.30
2023-03-16T05:51:41.759Z,9.50
2023-03-16T05:52:41.758Z,8.30
2023-03-16T05:53:41.741Z,7.70
2023-03-16T05:54:41.779Z,8.50
2023-03-16T05:55:41.711Z,8.90
2023-03-16T05:56:41.698Z,8.20
2023-03-16T05:57:41.707Z,8.10
2023-03-16T05:58:41.678Z,7.90
2023-03-16T05:59:41.667Z,7.30
2023-03-16T06:00:41.689Z,8.20
2023-03-16T06:01:41.758Z,7.30
2023-03-16T06:02:41.717Z,7.30
2023-03-16T06:03:41.801Z,7.70
2023-03-16T06:09:51.643Z,7.00
2023-03-16T06:10:50.733Z,7.40
2023-03-16T06:11:48.710Z,7.40
2023-03-16T06:12:49.181Z,7.50
2023-03-16T06:13:49.430Z,8.00
2023-03-16T06:14:51.629Z,7.70
2023-03-16T06:15:48.857Z,7.60
2023-03-16T06:16:49.881Z,7.60
2023-03-16T06:20:54.780Z,7.70
2023-03-16T06:21:54.406Z,7.90
2023-03-16T06:22:55.284Z,7.90
2023-03-16T06:28:07.585Z,7.70
2023-03-16T06:30:25.480Z,7.10
2023-03-16T06:31:34.637Z,7.40
2023-03-16T06:32:25.745Z,7.70
2023-03-16T06:33:25.116Z,7.90
2023-03-16T06:34:25.196Z,7.60
2023-03-16T06:35:25.207Z,7.50
2023-03-16T06:36:25.269Z,7.20
2023-03-16T06:37:25.189Z,7.10
2023-03-16T06:38:25.195Z,7.20
2023-03-16T06:39:25.081Z,7.50
2023-03-16T06:40:25.257Z,7.10
2023-03-16T06:41:25.263Z,6.90
2023-03-16T06:42:25.059Z,7.00
2023-03-16T06:43:25.074Z,7.00
2023-03-16T06:44:24.975Z,6.80
2023-03-16T06:45:25.119Z,6.70
2023-03-16T06:46:25.208Z,6.60
2023-03-16T06:47:25.116Z,7.10
2023-03-16T06:48:25.060Z,7.20
2023-03-16T06:49:25.146Z,7.00
2023-03-16T06:50:24.989Z,6.40
2023-03-16T06:51:24.960Z,6.80
2023-03-16T06:52:24.925Z,7.00
2023-03-16T06:53:24.953Z,6.40
2023-03-16T06:54:24.920Z,5.70
2023-03-16T06:55:24.920Z,6.40
2023-03-16T06:56:24.957Z,7.10
2023-03-16T06:57:25.058Z,7.20
2023-03-16T06:58:24.860Z,7.00
2023-03-16T06:59:24.994Z,6.50
2023-03-16T07:00:25.019Z,5.90
2023-03-16T07:01:24.975Z,6.40
2023-03-16T07:02:24.846Z,6.20
2023-03-16T07:03:24.874Z,6.30
2023-03-16T07:04:24.927Z,6.20
2023-03-16T07:05:24.776Z,6.60
2023-03-16T07:06:24.729Z,6.80
2023-03-16T07:07:24.832Z,6.40
2023-03-16T07:08:24.721Z,5.90
2023-03-16T07:09:24.735Z,6.00
2023-03-16T07:10:24.737Z,5.60
2023-03-16T07:11:24.679Z,5.70
2023-03-16T07:12:24.663Z,6.00
2023-03-16T07:13:24.599Z,6.10
2023-03-16T07:14:24.738Z,6.00
2023-03-16T07:15:24.735Z,5.60
2023-03-16T07:16:24.674Z,5.60
2023-03-16T07:17:24.594Z,5.70
2023-03-16T07:18:24.640Z,5.30
2023-03-16T07:19:24.626Z,5.60
2023-03-16T07:20:24.603Z,5.30
2023-03-16T07:21:24.532Z,5.40
2023-03-16T07:22:24.527Z,5.00
2023-03-16T07:23:24.631Z,5.40
2023-03-16T07:24:24.502Z,5.10
2023-03-16T07:25:24.502Z,4.90
2023-03-16T07:26:24.565Z,4.60
2023-03-16T07:27:24.569Z,5.00
2023-03-16T07:28:24.478Z,4.30
2023-03-16T07:29:24.546Z,4.80
2023-03-16T07:30:24.441Z,4.50
2023-03-16T07:31:24.523Z,4.90
2023-03-16T07:32:24.496Z,4.60
2023-03-16T07:33:24.496Z,4.80
2023-03-16T07:34:24.413Z,4.60
2023-03-16T07:35:24.453Z,5.00
2023-03-16T07:36:24.449Z,4.60
2023-03-16T07:37:25.567Z,4.70
2023-03-16T07:38:24.375Z,4.90
2023-03-16T07:39:24.492Z,4.60
2023-03-16T07:40:24.466Z,4.30
2023-03-16T07:41:24.402Z,4.10
2023-03-16T07:42:24.349Z,4.60
2023-03-16T07:43:24.292Z,4.40
2023-03-16T07:44:24.336Z,4.00
2023-03-16T07:45:24.308Z,4.20
2023-03-16T07:46:24.440Z,3.90
2023-03-16T07:47:26.397Z,4.40
2023-03-16T07:48:24.289Z,4.00
2023-03-16T07:49:24.263Z,3.70
2023-03-16T07:50:24.473Z,4.10
2023-03-16T07:51:24.336Z,4.40
2023-03-16T07:52:24.194Z,4.80
2023-03-16T07:53:24.319Z,5.10
2023-03-16T07:54:24.246Z,4.30
2023-03-16T07:55:24.470Z,4.10
2023-03-16T07:56:24.316Z,4.20
2023-03-16T07:57:24.166Z,3.60
2023-03-16T07:58:24.161Z,3.90
2023-03-16T07:59:24.200Z,3.90
2023-03-16T08:00:24.216Z,3.30
2023-03-16T08:01:24.179Z,3.90
2023-03-16T08:02:24.142Z,3.20
2023-03-16T08:03:24.232Z,3.70
2023-03-16T08:04:24.215Z,3.80
2023-03-16T08:05:26.003Z,3.30
2023-03-16T08:06:24.149Z,2.90
2023-03-16T08:07:24.113Z,3.10
2023-03-16T08:08:24.037Z,3.30
2023-03-16T08:09:24.035Z,3.00
2023-03-16T08:10:24.007Z,2.90
2023-03-16T08:11:24.053Z,2.60
2023-03-16T08:12:24.034Z,2.50
2023-03-16T08:13:24.067Z,2.60
2023-03-16T08:14:24.137Z,2.40
2023-03-16T08:15:24.013Z,2.40
2023-03-16T08:16:23.972Z,2.80
2023-03-16T08:17:23.983Z,2.70
2023-03-16T08:18:23.963Z,2.60
2023-03-16T08:19:23.935Z,2.30
2023-03-16T08:20:23.953Z,2.20
2023-03-16T08:21:23.969Z,2.40
2023-03-16T08:22:23.903Z,2.40
2023-03-16T08:23:23.923Z,2.30
2023-03-16T08:24:23.884Z,2.40
2023-03-16T08:25:23.867Z,2.40
2023-03-16T08:26:23.866Z,2.40
2023-03-16T08:27:23.813Z,2.40
2023-03-16T08:28:23.856Z,2.30
2023-03-16T08:29:23.793Z,3.10
2023-03-16T08:30:23.825Z,3.30
2023-03-16T08:31:23.995Z,2.80
2023-03-16T08:32:23.798Z,2.50
2023-03-16T08:33:23.824Z,2.70
2023-03-16T08:34:23.759Z,2.50
2023-03-16T08:35:23.775Z,2.20
2023-03-16T08:36:23.766Z,2.30
2023-03-16T08:37:23.724Z,2.40
2023-03-16T08:38:23.761Z,2.30
2023-03-16T08:39:23.698Z,2.20
2023-03-16T08:40:23.747Z,2.20
2023-03-16T08:41:23.686Z,2.20
2023-03-16T08:42:23.692Z,2.10
2023-03-16T08:43:23.682Z,2.30
2023-03-16T08:44:23.718Z,2.50
2023-03-16T08:45:23.653Z,2.10
2023-03-16T08:46:23.715Z,2.60
2023-03-16T08:47:23.665Z,2.10
2023-03-16T08:48:23.675Z,2.10
2023-03-16T08:49:23.614Z,2.00
2023-03-16T08:50:23.620Z,2.60
2023-03-16T08:51:23.593Z,2.40
2023-03-16T08:52:23.607Z,2.30
2023-03-16T08:53:23.525Z,2.40
2023-03-16T08:54:23.636Z,2.30
2023-03-16T08:55:23.561Z,2.30
2023-03-16T08:56:23.537Z,2.50
2023-03-16T08:57:23.582Z,2.10
2023-03-16T08:58:23.491Z,2.20
2023-03-16T08:59:29.734Z,2.30
2023-03-16T09:00:24.522Z,2.70
2023-03-16T09:01:23.569Z,2.40
2023-03-16T09:02:23.563Z,2.30
2023-03-16T09:03:23.436Z,2.40
2023-03-16T09:04:23.546Z,2.80
2023-03-16T09:05:23.398Z,4.60
2023-03-16T09:06:23.372Z,6.90
2023-03-16T09:07:23.419Z,5.90
2023-03-16T09:08:23.420Z,4.80
2023-03-16T09:09:23.349Z,4.30
2023-03-16T09:10:23.354Z,3.60
2023-03-16T09:11:23.330Z,3.50
2023-03-16T09:12:23.475Z,3.00
2023-03-16T09:13:23.442Z,2.70
2023-03-16T09:14:23.294Z,3.50
2023-03-16T09:15:23.363Z,2.70
2023-03-16T09:16:23.361Z,3.10
2023-03-16T09:17:23.334Z,2.90
2023-03-16T09:18:23.279Z,2.60
2023-03-16T09:19:23.259Z,2.80
2023-03-16T09:20:26.941Z,2.70
2023-03-16T09:21:24.326Z,2.80
2023-03-16T09:22:23.256Z,2.20
2023-03-16T09:23:23.272Z,2.30
2023-03-16T09:24:23.204Z,2.50
2023-03-16T09:25:23.253Z,2.10
2023-03-16T09:26:23.231Z,1.90
2023-03-16T09:27:23.356Z,2.10
2023-03-16T09:28:23.220Z,1.60
2023-03-16T09:29:23.137Z,1.60
2023-03-16T09:30:23.179Z,1.70
2023-03-16T09:31:23.238Z,1.60
2023-03-16T09:32:23.133Z,1.70
2023-03-16T09:33:23.172Z,1.40
2023-03-16T09:35:23.082Z,1.40
2023-03-16T09:36:23.138Z,1.50
2023-03-16T09:37:23.067Z,1.10
2023-03-16T09:38:23.039Z,1.40
2023-03-16T09:39:23.035Z,1.50
2023-03-16T09:40:23.214Z,1.10
2023-03-16T09:41:23.045Z,1.00
2023-03-16T09:42:23.029Z,1.20
2023-03-16T09:43:23.002Z,1.00
2023-03-16T09:44:22.975Z,1.30
2023-03-16T09:45:23.007Z,1.10
2023-03-16T09:46:23.034Z,1.20
2023-03-16T09:47:23.241Z,1.00
2023-03-16T09:48:23.027Z,0.80
2023-03-16T09:49:23.029Z,1.20
2023-03-16T09:50:23.062Z,0.90
2023-03-16T09:51:23.016Z,0.70
2023-03-16T09:52:22.950Z,0.90
2023-03-16T09:53:22.955Z,0.90
2023-03-16T09:54:22.874Z,0.90
2023-03-16T09:55:22.860Z,1.00
2023-03-16T09:56:22.915Z,0.90
2023-03-16T09:57:22.843Z,1.20
2023-03-16T09:58:22.865Z,0.80
2023-03-16T09:59:22.850Z,0.90
2023-03-16T10:00:22.866Z,0.80
2023-03-16T10:01:22.922Z,1.00
2023-03-16T10:02:22.887Z,0.90
2023-03-16T10:03:22.816Z,0.90
2023-03-16T10:04:22.877Z,1.30
2023-03-16T10:05:22.806Z,1.20
2023-03-16T10:06:22.720Z,1.30
2023-03-16T10:07:22.751Z,1.10
2023-03-16T10:08:22.741Z,0.90
2023-03-16T10:09:22.796Z,1.20
2023-03-16T10:10:22.831Z,1.20
2023-03-16T10:11:22.749Z,1.10
2023-03-16T10:12:22.671Z,1.10
2023-03-16T10:13:22.699Z,0.90
2023-03-16T10:14:22.687Z,0.90
2023-03-16T10:15:22.660Z,0.80
2023-03-16T10:16:22.696Z,1.10
2023-03-16T10:17:22.683Z,0.70
2023-03-16T10:18:22.603Z,0.90
2023-03-16T10:19:22.656Z,0.80
2023-03-16T10:20:22.632Z,0.80
2023-03-16T10:21:22.578Z,0.80
2023-03-16T10:22:22.651Z,0.60
2023-03-16T10:23:22.628Z,0.80
2023-03-16T10:24:22.652Z,0.80
2023-03-16T10:25:22.595Z,0.60
2023-03-16T10:26:22.528Z,0.70
2023-03-16T10:27:22.500Z,0.80
2023-03-16T10:28:22.535Z,0.60
2023-03-16T10:29:22.565Z,0.90
2023-03-16T10:30:22.581Z,0.70
2023-03-16T10:31:22.529Z,0.70
2023-03-16T10:32:22.472Z,0.60
2023-03-16T10:33:22.541Z,0.70
2023-03-16T10:34:22.485Z,0.60
2023-03-16T10:35:22.473Z,1.00
2023-03-16T10:36:22.443Z,0.80
2023-03-16T10:37:22.413Z,0.80
2023-03-16T10:38:22.508Z,0.70
2023-03-16T10:39:22.471Z,0.80
2023-03-16T10:40:22.486Z,0.60
2023-03-16T10:41:23.063Z,0.70
2023-03-16T10:42:22.365Z,0.70
2023-03-16T10:43:22.791Z,0.80
2023-03-16T10:44:22.441Z,0.70
2023-03-16T10:45:22.393Z,0.70
2023-03-16T10:46:22.403Z,0.80
2023-03-16T10:47:22.408Z,0.70
2023-03-16T10:48:22.351Z,0.80
2023-03-16T10:49:22.327Z,0.80
2023-03-16T10:50:22.292Z,1.00
2023-03-16T10:51:22.335Z,0.80
2023-03-16T10:52:22.293Z,0.80
2023-03-16T10:53:22.222Z,0.80
2023-03-16T10:54:22.320Z,1.10
2023-03-16T10:55:22.234Z,1.30
2023-03-16T10:56:22.253Z,1.00
2023-03-16T10:57:22.200Z,1.20
2023-03-16T10:58:22.194Z,1.10
2023-03-16T10:59:22.219Z,1.50
2023-03-16T11:00:22.215Z,1.40
2023-03-16T11:01:22.260Z,1.10
2023-03-16T11:02:22.138Z,1.40
2023-03-16T11:03:22.194Z,1.50
2023-03-16T11:04:22.145Z,1.10
2023-03-16T11:05:22.127Z,1.30
2023-03-16T11:06:22.102Z,1.20
2023-03-16T11:07:22.118Z,1.30
2023-03-16T11:08:22.122Z,1.10
2023-03-16T11:09:22.163Z,1.40
2023-03-16T11:10:22.145Z,1.10
2023-03-16T11:11:22.043Z,1.60
2023-03-16T11:12:22.044Z,1.30
2023-03-16T11:13:22.092Z,1.10
2023-03-16T11:14:22.054Z,0.90
2023-03-16T11:15:29.514Z,1.20
2023-03-16T11:16:23.087Z,1.10
2023-03-16T11:17:21.974Z,1.00
2023-03-16T11:18:21.991Z,1.30
2023-03-16T11:19:21.999Z,0.80
2023-03-16T11:20:22.002Z,1.20
2023-03-16T11:21:21.959Z,1.00
2023-03-16T11:22:21.935Z,1.20
2023-03-16T11:23:21.959Z,1.10
2023-03-16T11:24:21.940Z,1.40
2023-03-16T11:25:22.017Z,0.90
2023-03-16T11:26:21.925Z,1.50
2023-03-16T11:27:21.888Z,1.20
2023-03-16T11:28:22.012Z,1.00
2023-03-16T11:29:21.892Z,1.10
2023-03-16T11:30:21.876Z,1.20
2023-03-16T11:31:21.992Z,1.30
2023-03-16T11:32:21.841Z,1.50
2023-03-16T11:33:21.808Z,1.90
2023-03-16T11:34:21.811Z,1.90
2023-03-16T11:35:21.826Z,1.80
2023-03-16T11:36:21.890Z,1.70
2023-03-16T11:37:21.823Z,1.50
2023-03-16T11:38:21.793Z,1.70
2023-03-16T11:39:21.730Z,1.30
2023-03-16T11:40:21.816Z,1.40
2023-03-16T11:41:21.780Z,1.00
2023-03-16T11:42:21.734Z,0.90
2023-03-16T11:43:21.776Z,1.10
2023-03-16T11:44:21.702Z,0.90
2023-03-16T11:45:21.739Z,1.20
2023-03-16T11:46:21.806Z,1.10
2023-03-16T11:47:21.804Z,0.80
2023-03-16T11:48:21.806Z,1.30
2023-03-16T11:49:21.671Z,1.00
2023-03-16T11:50:21.617Z,0.90
2023-03-16T11:51:21.619Z,0.90
2023-03-16T11:52:21.635Z,0.90
2023-03-16T11:53:21.605Z,0.90
2023-03-16T11:54:21.591Z,1.10
2023-03-16T11:55:21.630Z,0.80
2023-03-16T11:56:21.599Z,0.90
2023-03-16T11:57:21.592Z,0.70
2023-03-16T11:58:21.589Z,0.90
2023-03-16T11:59:21.534Z,0.90
2023-03-16T12:00:21.539Z,0.90
2023-03-16T12:01:21.710Z,1.00
2023-03-16T12:02:21.687Z,0.90
2023-03-16T12:03:21.650Z,1.00
2023-03-16T12:04:21.557Z,1.00
2023-03-16T12:05:21.513Z,0.90
2023-03-16T12:06:23.393Z,0.90
2023-03-16T12:07:21.430Z,1.10
2023-03-16T12:08:21.473Z,1.10
2023-03-16T12:09:21.401Z,0.90
2023-03-16T12:10:21.397Z,0.80
2023-03-16T12:11:36.126Z,0.80
2023-03-16T12:12:21.388Z,0.80
2023-03-16T12:13:21.402Z,0.90
2023-03-16T12:14:21.357Z,0.70
2023-03-16T12:15:21.388Z,0.70
2023-03-16T12:16:21.380Z,0.90
2023-03-16T12:17:21.323Z,1.00
2023-03-16T12:18:21.398Z,0.70
2023-03-16T12:19:21.340Z,0.90
2023-03-16T12:20:21.380Z,0.80
2023-03-16T12:21:21.308Z,0.80
2023-03-16T12:22:21.343Z,0.70
2023-03-16T12:23:21.363Z,1.00
2023-03-16T12:24:21.265Z,0.80
2023-03-16T12:25:21.249Z,1.00
2023-03-16T12:26:21.232Z,1.00
2023-03-16T12:27:21.191Z,0.80
2023-03-16T12:28:21.302Z,1.00
2023-03-16T12:29:21.241Z,1.00
2023-03-16T12:30:21.216Z,1.20
2023-03-16T12:31:21.193Z,0.80
2023-03-16T12:32:21.226Z,0.80
2023-03-16T12:33:21.131Z,0.80
2023-03-16T12:34:21.250Z,1.10
2023-03-16T12:35:21.125Z,1.50
2023-03-16T12:36:22.066Z,2.20
2023-03-16T12:38:51.746Z,1.60
2023-03-16T12:39:51.919Z,1.60
2023-03-16T12:40:51.649Z,1.50
2023-03-16T12:41:51.298Z,1.40
2023-03-16T12:42:51.363Z,1.30
2023-03-16T12:43:51.412Z,1.00
2023-03-16T12:44:51.349Z,1.40
2023-03-16T12:45:51.399Z,1.00
2023-03-16T12:46:51.280Z,1.20
2023-03-16T12:47:51.227Z,0.90
2023-03-16T12:48:51.401Z,1.10
2023-03-16T12:49:51.533Z,1.00
2023-03-16T12:50:51.204Z,1.10
2023-03-16T12:51:51.262Z,0.80
2023-03-16T12:52:51.410Z,1.00
2023-03-16T12:53:51.372Z,0.80
2023-03-16T12:54:51.388Z,1.20
2023-03-16T12:55:51.216Z,0.80
2023-03-16T12:56:51.236Z,1.10
2023-03-16T12:57:51.258Z,1.10
2023-03-16T12:58:51.215Z,0.90
2023-03-16T12:59:51.209Z,1.20
2023-03-16T13:00:51.288Z,1.10
2023-03-16T13:01:51.187Z,1.20
2023-03-16T13:02:51.367Z,1.30
2023-03-16T13:03:51.788Z,1.10
2023-03-16T13:04:51.935Z,1.20
2023-03-16T13:05:51.894Z,1.10
2023-03-16T13:06:51.320Z,1.30
2023-03-16T13:07:51.466Z,1.20
2023-03-16T13:08:51.477Z,1.30
2023-03-16T13:09:51.232Z,0.90
2023-03-16T13:10:51.123Z,0.80
2023-03-16T13:11:51.109Z,1.00
2023-03-16T13:12:51.156Z,1.10
2023-03-16T13:13:51.056Z,1.30
2023-03-16T13:14:51.065Z,0.80
2023-03-16T13:15:51.016Z,0.90
2023-03-16T13:16:51.187Z,1.00
2023-03-16T13:17:51.133Z,0.90
2023-03-16T13:18:51.032Z,0.90
2023-03-16T13:19:51.194Z,1.20
2023-03-16T13:20:51.224Z,1.10
2023-03-16T13:21:51.331Z,0.80
2023-03-16T13:22:50.985Z,0.80
2023-03-16T13:23:51.080Z,0.80
2023-03-16T13:24:51.168Z,1.10
2023-03-16T13:25:51.142Z,0.90
2023-03-16T13:26:51.209Z,1.20
2023-03-16T13:27:51.145Z,0.90
2023-03-16T13:28:51.158Z,1.00
2023-03-16T13:29:51.166Z,0.90
2023-03-16T13:30:51.163Z,1.00
2023-03-16T13:31:50.925Z,0.90
2023-03-16T13:32:51.389Z,0.90
2023-03-16T13:33:50.986Z,0.70
2023-03-16T13:34:51.033Z,0.90
2023-03-16T13:35:51.338Z,0.90
2023-03-16T13:36:50.959Z,0.80
2023-03-16T13:37:50.930Z,1.20
2023-03-16T13:38:50.867Z,1.50
2023-03-16T13:39:51.252Z,1.00
2023-03-16T13:40:51.144Z,1.10
2023-03-16T13:41:50.981Z,1.30
2023-03-16T13:42:51.156Z,2.10
2023-03-16T13:43:50.781Z,1.40
2023-03-16T13:44:50.932Z,1.10
2023-03-16T13:45:50.965Z,1.30
2023-03-16T13:46:50.911Z,1.60
2023-03-16T13:47:51.001Z,1.10
2023-03-16T13:48:50.806Z,0.90
2023-03-16T13:49:50.938Z,0.90
2023-03-16T13:50:51.391Z,0.90
2023-03-16T13:51:51.036Z,1.00
2023-03-16T13:52:52.023Z,1.10
2023-03-16T13:53:52.317Z,1.10
2023-03-16T13:54:51.670Z,0.70
2023-03-16T13:55:51.128Z,1.00
2023-03-16T13:56:51.023Z,1.30
2023-03-16T13:57:50.902Z,1.50
2023-03-16T13:58:50.884Z,1.70
2023-03-16T13:59:50.672Z,1.40
2023-03-16T14:03:06.543Z,1.60
2023-03-16T14:04:06.465Z,1.70
2023-03-16T14:05:06.646Z,2.20
2023-03-16T14:06:06.653Z,2.20
2023-03-16T14:07:06.642Z,2.20
2023-03-16T14:08:07.100Z,1.70
2023-03-16T14:09:06.320Z,1.50
2023-03-16T14:10:07.478Z,1.60
2023-03-16T14:11:08.278Z,1.50
2023-03-16T14:12:06.942Z,1.00
2023-03-16T14:13:06.886Z,1.10
2023-03-16T14:14:06.554Z,0.90
2023-03-16T14:15:06.558Z,0.90
2023-03-16T14:16:06.439Z,1.00
2023-03-16T14:17:06.198Z,0.90
2023-03-16T14:18:06.611Z,1.20
2023-03-16T14:19:06.456Z,0.50
2023-03-16T14:20:06.728Z,0.90
2023-03-16T14:21:06.051Z,1.20
2023-03-16T14:22:27.391Z,0.90
2023-03-16T14:23:06.439Z,1.00
2023-03-16T14:24:06.489Z,0.70
2023-03-16T14:25:06.862Z,0.80
2023-03-16T14:26:07.164Z,0.80
2023-03-16T14:27:06.713Z,0.60
2023-03-16T14:28:07.223Z,0.70
2023-03-16T14:29:07.417Z,0.80
2023-03-16T14:30:07.706Z,0.60
2023-03-16T14:31:06.892Z,0.70
2023-03-16T14:32:06.908Z,0.60
2023-03-16T14:33:06.335Z,0.50
2023-03-16T14:34:07.197Z,1.00
2023-03-16T14:35:06.667Z,0.70
2023-03-16T14:36:07.618Z,0.60
2023-03-16T14:37:07.467Z,0.80
2023-03-16T14:38:07.555Z,0.60
2023-03-16T14:39:07.697Z,0.70
2023-03-16T14:40:06.037Z,0.60
2023-03-16T14:41:06.382Z,0.60
2023-03-16T14:42:06.481Z,0.70
2023-03-16T14:43:06.167Z,0.70
2023-03-16T14:44:06.222Z,0.60
2023-03-16T14:45:06.133Z,1.10
2023-03-16T14:46:06.288Z,1.00
2023-03-16T14:47:06.216Z,1.60
2023-03-16T14:48:06.517Z,0.80
2023-03-16T14:49:06.427Z,0.90
2023-03-16T14:50:06.378Z,1.10
2023-03-16T14:51:06.345Z,1.00
2023-03-16T14:52:06.074Z,0.60
2023-03-16T14:53:06.287Z,0.90
2023-03-16T14:54:06.519Z,0.80
2023-03-16T14:55:06.633Z,0.70
2023-03-16T14:56:06.630Z,0.80
2023-03-16T14:57:06.505Z,1.00
2023-03-16T14:58:05.957Z,0.70
2023-03-16T14:59:06.010Z,0.80
2023-03-16T15:00:07.990Z,0.90
2023-03-16T15:01:05.513Z,0.70
2023-03-16T15:02:05.562Z,0.80
2023-03-16T15:03:05.750Z,0.70
2023-03-16T15:04:25.356Z,0.80
2023-03-16T15:07:30.064Z,0.90
2023-03-16T15:08:30.939Z,0.80
2023-03-16T15:09:29.908Z,0.90
2023-03-16T15:10:30.460Z,0.70
2023-03-16T15:11:29.412Z,1.00
2023-03-16T15:12:29.292Z,0.80
2023-03-16T15:13:29.272Z,0.90
2023-03-16T15:14:29.268Z,0.80
2023-03-16T15:15:30.621Z,0.70
2023-03-16T15:16:29.468Z,0.90
2023-03-16T15:17:29.368Z,0.60
2023-03-16T15:18:29.418Z,0.80
2023-03-16T15:19:29.511Z,0.60
2023-03-16T15:20:29.558Z,0.90
2023-03-16T15:21:30.311Z,1.20
2023-03-16T15:22:29.150Z,0.90
2023-03-16T15:23:29.159Z,0.90
2023-03-16T15:24:29.606Z,0.70
2023-03-16T15:28:07.940Z,0.90
2023-03-16T15:31:11.457Z,0.80
2023-03-16T15:32:11.273Z,0.80
2023-03-16T15:33:10.811Z,1.00
2023-03-16T15:34:10.790Z,0.90
2023-03-16T15:35:11.909Z,0.50
2023-03-16T15:36:11.262Z,1.00
2023-03-16T15:37:11.704Z,1.00
2023-03-16T15:38:10.703Z,0.80
2023-03-16T15:39:11.587Z,1.00
2023-03-16T15:40:12.513Z,1.50
2023-03-16T15:44:21.718Z,1.30
2023-03-16T15:45:22.021Z,1.00
2023-03-16T15:46:43.930Z,1.20
2023-03-16T15:47:22.300Z,1.30
2023-03-16T15:48:35.337Z,1.10
2023-03-16T15:49:21.964Z,1.00
2023-03-16T15:50:22.020Z,1.20
2023-03-16T15:51:24.104Z,1.10
2023-03-16T15:52:22.341Z,1.00
2023-03-16T15:53:30.218Z,0.80
2023-03-16T15:54:23.479Z,0.80
2023-03-16T15:55:22.715Z,1.00
2023-03-16T15:56:21.597Z,1.00
2023-03-16T15:57:21.921Z,1.00
2023-03-16T15:58:21.868Z,0.90
2023-03-16T15:59:21.848Z,0.80
2023-03-16T16:00:21.836Z,0.50
2023-03-16T16:01:21.556Z,1.00
2023-03-16T16:02:21.572Z,1.00
2023-03-16T16:03:21.745Z,1.00
2023-03-16T16:04:21.673Z,0.80
2023-03-16T16:05:24.110Z,0.80
2023-03-16T16:06:21.644Z,0.60
2023-03-16T16:07:21.884Z,0.80
2023-03-16T16:08:22.223Z,0.80
2023-03-16T16:09:21.628Z,1.10
2023-03-16T16:10:21.678Z,0.90
2023-03-16T16:11:21.573Z,0.90
2023-03-16T16:12:21.340Z,1.30
2023-03-16T16:13:23.276Z,1.50
2023-03-16T16:14:21.389Z,1.60
2023-03-16T16:15:21.250Z,4.80
2023-03-16T16:16:21.695Z,4.30
2023-03-16T16:17:24.756Z,4.20
2023-03-16T16:18:23.204Z,6.40
2023-03-16T16:19:21.384Z,7.50
2023-03-16T16:20:21.772Z,8.50
2023-03-16T16:21:23.351Z,7.30
2023-03-16T16:22:21.411Z,5.80
2023-03-16T16:23:22.324Z,7.70
2023-03-16T16:24:21.283Z,6.50
2023-03-16T16:25:21.372Z,4.90
2023-03-16T16:26:22.338Z,3.90
2023-03-16T16:27:22.986Z,3.40
2023-03-16T16:29:40.891Z,2.20
2023-03-16T16:32:40.130Z,2.20
2023-03-16T16:33:40.206Z,2.10
2023-03-16T16:34:39.693Z,1.80
2023-03-16T16:35:40.455Z,2.10
2023-03-16T16:36:39.708Z,2.20
2023-03-16T16:38:08.474Z,2.20
2023-03-16T16:38:39.878Z,2.20
2023-03-16T16:39:39.591Z,2.10
2023-03-16T16:40:39.533Z,2.50
2023-03-16T16:41:39.531Z,2.30
2023-03-16T16:42:39.503Z,2.30
2023-03-16T16:43:39.525Z,2.30
2023-03-16T16:44:39.514Z,2.30
2023-03-16T16:45:39.538Z,2.00
2023-03-16T16:46:39.473Z,1.90
2023-03-16T16:47:39.461Z,1.70
2023-03-16T16:48:39.419Z,1.80
2023-03-16T16:49:39.477Z,1.70
2023-03-16T16:50:39.424Z,1.90
2023-03-16T16:51:39.732Z,1.70
2023-03-16T16:52:39.616Z,1.60
2023-03-16T16:53:39.379Z,1.70
2023-03-16T16:54:39.351Z,2.10
2023-03-16T16:55:41.922Z,1.60
2023-03-16T16:56:39.390Z,1.70
2023-03-16T16:57:39.327Z,2.00
2023-03-16T16:58:39.475Z,2.70
2023-03-16T16:59:39.338Z,2.40
2023-03-16T17:00:39.394Z,2.00
2023-03-16T17:01:39.298Z,2.60
2023-03-16T17:02:41.918Z,3.60
2023-03-16T17:03:39.313Z,5.10
2023-03-16T17:04:39.364Z,3.90
2023-03-16T17:05:39.282Z,3.50
2023-03-16T17:06:39.260Z,4.30
2023-03-16T17:07:39.259Z,5.30
2023-03-16T17:08:39.253Z,5.80
2023-03-16T17:09:39.473Z,8.50
2023-03-16T17:10:39.225Z,6.40
2023-03-16T17:11:39.242Z,4.30
2023-03-16T17:12:39.202Z,3.80
2023-03-16T17:13:39.157Z,3.20
2023-03-16T17:14:39.163Z,3.10
2023-03-16T17:15:40.452Z,2.90
2023-03-16T17:16:39.244Z,3.50
2023-03-16T17:17:39.160Z,4.10
2023-03-16T17:18:39.149Z,3.60
2023-03-16T17:19:39.151Z,3.00
2023-03-16T17:20:39.082Z,2.80
2023-03-16T17:21:39.287Z,2.90
2023-03-16T17:22:39.073Z,3.00
2023-03-16T17:23:39.067Z,2.40
2023-03-16T17:24:39.215Z,2.70
2023-03-16T17:25:39.046Z,2.70
2023-03-16T17:26:39.231Z,2.40
2023-03-16T17:27:39.479Z,2.80
2023-03-16T17:41:15.822Z,2.40
2023-03-16T17:42:13.582Z,2.20
2023-03-16T17:43:12.122Z,1.70
2023-03-16T17:44:12.899Z,1.80
2023-03-16T17:45:14.863Z,2.10
2023-03-16T18:04:06.626Z,5.60
2023-03-16T18:10:36.401Z,3.70
2023-03-16T18:29:40.283Z,3.10
2023-03-16T18:30:40.724Z,2.80
2023-03-16T18:31:41.682Z,3.10
2023-03-16T18:32:39.862Z,3.00
2023-03-16T18:33:39.828Z,2.80
2023-03-16T18:34:39.823Z,3.00
2023-03-16T18:35:39.869Z,3.00
2023-03-16T18:36:39.833Z,2.70
2023-03-16T18:37:40.204Z,3.10
2023-03-16T18:38:39.950Z,3.30
2023-03-16T18:39:40.095Z,3.30
2023-03-16T18:40:39.753Z,3.40
2023-03-16T18:41:40.135Z,3.80
2023-03-16T18:42:40.069Z,3.50
2023-03-16T18:43:40.035Z,3.10
2023-03-16T18:44:40.249Z,3.00
2023-03-16T18:45:39.928Z,3.60
2023-03-16T18:46:39.805Z,3.50
2023-03-16T18:47:39.904Z,3.60
2023-03-16T18:48:39.855Z,3.50
2023-03-16T18:49:39.954Z,3.50
2023-03-16T18:50:40.140Z,3.40
2023-03-16T18:52:14.274Z,3.90
2023-03-16T18:52:40.184Z,4.00
2023-03-16T18:53:42.694Z,3.70
2023-03-16T18:54:40.058Z,4.10
2023-03-16T18:55:47.566Z,3.60
2023-03-16T18:56:40.202Z,4.20
2023-03-16T18:57:39.731Z,4.80
2023-03-16T18:59:57.382Z,5.80
2023-03-16T19:02:16.581Z,4.90
2023-03-16T19:03:16.167Z,4.30
2023-03-16T19:04:16.352Z,4.20
2023-03-16T19:05:16.133Z,3.60
2023-03-16T19:06:16.012Z,3.10
2023-03-16T19:07:16.070Z,3.20
2023-03-16T19:08:16.074Z,3.00